Time;durP1;ratioP1;P1;durP2;ratioP2;P2;SDS_P1;SDS_P2;PMS_P1;PMS_P2;Temp;Humidity;BMP_temperature;BMP_pressure;BME280_temperature;BME280_humidity;BME280_pressure;Samples;Min_cycle;Max_cycle;Signal;HPM_P1;HPM_P2
2024/03/08 18:23:30;;;;;;;26.25;19.17;;;9.40;74.60;;;;;;10491928;27;20627;-67
2024/03/08 18:28:34;;;;;;;27.53;18.57;;;9.30;75.20;;;;;;10446741;28;20226;-68
2024/03/08 18:33:37;;;;;;;25.98;18.38;;;9.40;75.90;;;;;;10417308;28;20215;-66
2024/03/08 18:38:42;;;;;;;25.42;18.17;;;9.50;76.60;;;;;;10415571;28;21284;-64
2024/03/08 18:43:49;;;;;;;22.90;18.55;;;9.50;76.70;;;;;;10414258;28;20203;-70
2024/03/08 18:48:53;;;;;;;24.95;18.75;;;9.50;76.80;;;;;;10409483;28;21328;-66
2024/03/08 18:53:58;;;;;;;23.88;18.98;;;9.50;76.90;;;;;;10413374;28;20567;-67
2024/03/08 18:59:01;;;;;;;26.65;19.75;;;9.60;77.20;;;;;;10413054;28;20356;-62
2024/03/08 19:04:06;;;;;;;26.90;19.40;;;9.50;77.40;;;;;;10412301;28;20204;-63
2024/03/08 19:09:14;;;;;;;29.35;21.23;;;9.50;77.30;;;;;;10412045;28;20272;-63
2024/03/08 19:14:18;;;;;;;29.95;21.73;;;9.50;78.50;;;;;;10413966;28;20234;-62
2024/03/08 19:19:22;;;;;;;29.88;22.42;;;9.50;77.40;;;;;;10415655;28;20288;-61
2024/03/08 19:24:27;;;;;;;27.20;21.50;;;9.50;77.60;;;;;;10422818;28;20207;-61
2024/03/08 19:29:31;;;;;;;27.98;22.05;;;9.40;77.20;;;;;;10419262;28;20223;-59
2024/03/08 19:34:34;;;;;;;34.03;22.60;;;9.40;77.70;;;;;;10392775;28;20281;-61
2024/03/08 19:39:39;;;;;;;29.42;22.45;;;9.30;77.40;;;;;;10392608;28;20228;-60
2024/03/08 19:44:47;;;;;;;30.55;24.05;;;9.30;77.60;;;;;;10393387;28;20862;-60
2024/03/08 19:49:51;;;;;;;31.30;23.98;;;9.20;77.60;;;;;;10391367;28;20213;-60
2024/03/08 19:54:56;;;;;;;30.75;23.23;;;9.20;77.30;;;;;;10388168;28;20204;-58
2024/03/08 20:00:00;;;;;;;30.15;23.33;;;9.10;77.60;;;;;;10389976;28;20294;-59
2024/03/08 20:05:04;;;;;;;32.33;24.90;;;9.10;78.20;;;;;;10388964;28;20212;-58
2024/03/08 20:10:11;;;;;;;30.27;23.73;;;9.10;77.70;;;;;;10389460;28;20276;-59
2024/03/08 20:15:16;;;;;;;32.13;24.07;;;9.10;77.80;;;;;;10395167;28;20711;-59
2024/03/08 20:20:21;;;;;;;33.37;25.37;;;9.00;77.40;;;;;;10395611;28;20231;-61
2024/03/08 20:25:26;;;;;;;32.63;25.30;;;9.00;77.60;;;;;;10395244;28;20212;-60
2024/03/08 20:30:30;;;;;;;30.87;24.97;;;8.90;77.60;;;;;;10391143;28;20224;-60
2024/03/08 20:35:34;;;;;;;33.10;24.33;;;8.90;77.40;;;;;;10392368;28;20207;-60
2024/03/08 20:40:41;;;;;;;32.33;25.13;;;8.90;77.50;;;;;;10389883;28;20824;-59
2024/03/08 20:45:46;;;;;;;34.10;25.33;;;8.80;77.30;;;;;;10390479;28;20296;-61
2024/03/08 20:50:51;;;;;;;34.73;25.87;;;8.80;77.50;;;;;;10388493;28;20305;-57
2024/03/08 20:55:56;;;;;;;33.63;24.90;;;8.70;77.30;;;;;;10390866;28;20282;-59
2024/03/08 21:01:03;;;;;;;30.42;23.83;;;8.70;77.40;;;;;;10391501;28;20302;-60
2024/03/08 21:06:08;;;;;;;32.33;25.83;;;8.70;77.60;;;;;;10392265;28;21244;-59
2024/03/08 21:11:13;;;;;;;36.00;26.17;;;8.60;77.30;;;;;;10392417;28;21431;-58
2024/03/08 21:16:17;;;;;;;37.50;26.03;;;8.60;77.30;;;;;;10392003;28;20346;-59
2024/03/08 21:21:21;;;;;;;32.47;24.60;;;8.50;77.50;;;;;;10388892;28;20232;-59
2024/03/08 21:26:26;;;;;;;32.73;25.23;;;8.50;77.80;;;;;;10389836;28;21679;-58
2024/03/08 21:31:31;;;;;;;32.83;24.87;;;8.50;77.80;;;;;;10390412;28;20364;-60
2024/03/08 21:36:34;;;;;;;33.97;25.77;;;8.40;77.80;;;;;;10389548;28;20233;-60
2024/03/08 21:41:40;;;;;;;38.47;25.93;;;8.40;77.70;;;;;;10389530;28;20232;-59
2024/03/08 21:46:48;;;;;;;31.93;24.40;;;8.40;77.80;;;;;;10387616;28;20216;-60
2024/03/08 21:51:52;;;;;;;36.90;25.07;;;8.30;77.80;;;;;;10387161;28;20285;-60
2024/03/08 21:56:57;;;;;;;32.90;24.80;;;8.30;77.80;;;;;;10388788;28;20211;-59
2024/03/08 22:02:02;;;;;;;32.33;25.10;;;8.20;78.20;;;;;;10387441;28;20227;-60
2024/03/08 22:07:06;;;;;;;35.60;24.70;;;8.20;77.80;;;;;;10387004;28;20269;-60
2024/03/08 22:12:10;;;;;;;36.10;24.30;;;8.20;77.80;;;;;;10387703;28;21277;-59
2024/03/08 22:17:14;;;;;;;35.13;25.43;;;8.20;77.80;;;;;;10387499;28;21314;-60
2024/03/08 22:22:19;;;;;;;33.20;25.03;;;8.10;77.70;;;;;;10387616;28;20313;-60
2024/03/08 22:27:24;;;;;;;36.07;25.80;;;8.10;77.70;;;;;;10386666;28;20212;-60
2024/03/08 22:32:28;;;;;;;35.57;25.80;;;8.10;77.80;;;;;;10384800;28;20240;-59
2024/03/08 22:37:32;;;;;;;34.00;24.47;;;8.00;77.80;;;;;;10385826;28;20727;-60
2024/03/08 22:42:37;;;;;;;38.97;26.63;;;8.00;77.90;;;;;;10384327;28;20252;-61
2024/03/08 22:47:43;;;;;;;34.50;25.57;;;8.00;77.90;;;;;;10384318;28;20212;-60
2024/03/08 22:52:48;;;;;;;35.03;24.73;;;8.00;78.00;;;;;;10387262;28;20205;-60
2024/03/08 22:57:53;;;;;;;34.40;25.63;;;7.90;78.00;;;;;;10386752;28;20204;-60
2024/03/08 23:02:58;;;;;;;34.53;25.50;;;7.90;78.00;;;;;;10389750;28;20331;-60
2024/03/08 23:08:03;;;;;;;38.03;26.17;;;7.80;78.00;;;;;;10397304;28;20559;-60
2024/03/08 23:13:09;;;;;;;37.27;26.87;;;7.80;78.00;;;;;;10397761;28;20266;-60
2024/03/08 23:18:13;;;;;;;36.47;26.23;;;7.80;78.20;;;;;;10399710;28;21392;-60
2024/03/08 23:23:19;;;;;;;36.30;25.70;;;7.80;78.20;;;;;;10399755;28;21074;-60
2024/03/08 23:28:24;;;;;;;35.30;26.10;;;7.80;78.20;;;;;;10393569;28;20227;-60
2024/03/08 23:33:28;;;;;;;37.50;27.17;;;7.70;78.20;;;;;;10388717;28;20200;-60
2024/03/08 23:38:31;;;;;;;35.63;26.07;;;7.70;79.10;;;;;;10391638;28;20288;-60
2024/03/08 23:43:37;;;;;;;35.53;25.83;;;7.70;78.40;;;;;;10389297;28;20224;-60
2024/03/08 23:48:41;;;;;;;36.90;26.70;;;7.60;78.30;;;;;;10387513;28;20229;-60
2024/03/08 23:53:44;;;;;;;37.00;26.53;;;7.60;78.40;;;;;;10384784;28;20207;-59
2024/03/08 23:58:50;;;;;;;38.50;26.93;;;7.60;78.50;;;;;;10385010;28;20232;-60
